Lammy — PBRE — position and weather

sailwx.info

Track history (hours):
 
Tides and Currents Weather Stations Pressure Air Temp Water Temp Dewpoint Dewpoint Depression Visibility Wind Speed Wind Dir Waves Ship Positions

Lammy

Last reported at 2017-Jul-20 13:50 UTC. Time now 2017-Jul-20 16:28 UTC.
Position N 53°38' W 000°11'.

Length 95 m; draft 5.4 m.

Type: Cargo ship. MMSI: 245391000.

Date/timePositionNaut miles runAvg speedWind from/ knotsBaromVisibWave heightAir tempDewpointWater temp
2017-Jul-20 13:50N 53°38' W 000°11'0 0.0
2017-Jul-20 13:20N 53°38' W 000°11'0 0.0
2017-Jul-20 11:50N 53°38' W 000°11'0 0.0
2017-Jul-20 06:53N 53°38' W 000°11'0 0.0
2017-Jul-20 06:29N 53°38' W 000°11'0 0.0
2017-Jul-20 05:59N 53°38' W 000°11'0 0.0
2017-Jul-20 05:29N 53°38' W 000°11'0 0.0
2017-Jul-20 04:59N 53°38' W 000°11'0 0.0
2017-Jul-20 04:29N 53°38' W 000°11'0 0.0
2017-Jul-20 03:56N 53°38' W 000°11'0 0.0
2017-Jul-20 03:26N 53°38' W 000°11'0 0.0
2017-Jul-20 02:44N 53°38' W 000°11'0 0.0
2017-Jul-20 02:29N 53°38' W 000°11'0 0.0
2017-Jul-20 01:50N 53°38' W 000°11'0 0.0
2017-Jul-20 01:29N 53°38' W 000°11'0 0.0
2017-Jul-20 00:53N 53°38' W 000°11'0 0.0
2017-Jul-20 00:29N 53°38' W 000°11'0 0.0
2017-Jul-19 23:59N 53°38' W 000°11'0 0.0
2017-Jul-19 23:29N 53°38' W 000°11'0 0.0
2017-Jul-19 22:59N 53°38' W 000°11'0 0.0
2017-Jul-19 22:26N 53°38' W 000°11'0 0.2
2017-Jul-19 21:58N 53°38' W 000°11'0 0.3
2017-Jul-19 21:29N 53°38' W 000°11'0 0.6
2017-Jul-19 20:57N 53°38' W 000°11'0 0.8
2017-Jul-19 20:28N 53°38' W 000°11'3 5.4
2017-Jul-19 20:00N 53°41' W 000°13'4 8.5
2017-Jul-19 19:30N 53°44' W 000°16'1 1.0
2017-Jul-19 18:59N 53°45' W 000°16'0 0.0
2017-Jul-19 18:29N 53°45' W 000°16'0 0.0
2017-Jul-19 17:59N 53°45' W 000°16'0 0.0
2017-Jul-19 17:29N 53°45' W 000°16'0 0.0
2017-Jul-19 16:59N 53°45' W 000°16'0 0.0
2017-Jul-19 16:26N 53°45' W 000°16'0 0.0
2017-Jul-19 15:59N 53°45' W 000°16'0 0.0
2017-Jul-19 15:26N 53°45' W 000°16'0 0.0
2017-Jul-19 14:59N 53°45' W 000°16'0 0.0
2017-Jul-19 14:29N 53°45' W 000°16'0 0.0
2017-Jul-19 13:59N 53°45' W 000°16'0 0.0
2017-Jul-19 13:29N 53°45' W 000°16'0 0.0
2017-Jul-19 12:59N 53°45' W 000°16'0 0.0
2017-Jul-19 12:26N 53°45' W 000°16'0 0.0
2017-Jul-19 11:59N 53°45' W 000°16'0 0.0
2017-Jul-19 11:29N 53°45' W 000°16'0 0.0
2017-Jul-19 10:59N 53°45' W 000°16'0 0.0
2017-Jul-19 10:29N 53°45' W 000°16'0 0.0
2017-Jul-19 09:59N 53°45' W 000°16'0 0.0
2017-Jul-19 09:29N 53°45' W 000°16'0 0.0
2017-Jul-19 08:59N 53°45' W 000°16'0 0.0
2017-Jul-19 08:29N 53°45' W 000°16'0 0.0
2017-Jul-19 07:59N 53°45' W 000°16'0 0.0
2017-Jul-19 07:29N 53°45' W 000°16'0 0.0
2017-Jul-19 06:59N 53°45' W 000°16'0 0.0
2017-Jul-19 06:26N 53°45' W 000°16'0 0.0
2017-Jul-19 05:59N 53°45' W 000°16'0 0.0
2017-Jul-19 05:26N 53°45' W 000°16'0 0.0
2017-Jul-19 04:50N 53°45' W 000°16'0 0.0
2017-Jul-19 04:26N 53°45' W 000°16'0 0.0
2017-Jul-19 03:56N 53°45' W 000°16'0 0.0
2017-Jul-19 03:29N 53°45' W 000°16'0 0.0
2017-Jul-19 02:56N 53°45' W 000°16'0 0.0
2017-Jul-19 02:29N 53°45' W 000°16'0 0.0
2017-Jul-19 01:59N 53°45' W 000°16'0 0.0
2017-Jul-19 01:29N 53°45' W 000°16'0 0.0
2017-Jul-19 00:59N 53°45' W 000°16'0 0.0
2017-Jul-19 00:29N 53°45' W 000°16'0 0.0
2017-Jul-18 23:59N 53°45' W 000°16'0 0.0
2017-Jul-18 23:29N 53°45' W 000°16'0 0.0
2017-Jul-18 22:59N 53°45' W 000°16'0 0.0
2017-Jul-18 22:29N 53°45' W 000°16'0 0.0
2017-Jul-18 22:00N 53°45' W 000°16'0 0.9
2017-Jul-18 21:30N 53°44' W 000°16'0 0.2
2017-Jul-18 21:00N 53°44' W 000°17'2 4.3
2017-Jul-18 20:30N 53°43' W 000°14'511.1
2017-Jul-18 20:00N 53°38' W 000°10'711.3
2017-Jul-18 19:25N 53°35' E 000°01'1711.6
2017-Jul-18 17:58N 53°34' E 000°29'611.9
2017-Jul-18 17:30N 53°34' E 000°38'611.9
2017-Jul-18 17:00N 53°35' E 000°48'612.3
2017-Jul-18 16:30N 53°35' E 000°58'611.7
2017-Jul-18 16:00N 53°35' E 001°08'610.2
2017-Jul-18 15:23N 53°35' E 001°19'510.0
2017-Jul-18 14:53N 53°35' E 001°27'10 9.8
2017-Jul-18 13:52N 53°35' E 001°44'23 9.7
2017-Jul-18 11:27N 53°34' E 002°23'510.2
2017-Jul-18 10:57N 53°34' E 002°32'510.3
2017-Jul-18 10:30N 53°34' E 002°40'3910.9
2017-Jul-18 06:57N 53°30' E 003°44'711.4
2017-Jul-18 06:20N 53°30' E 003°56'411.4
2017-Jul-18 06:00N 53°30' E 004°03'611.4
2017-Jul-18 05:26N 53°30' E 004°14'611.5
2017-Jul-18 04:57N 53°30' E 004°23'13611.2
2017-Jul-17 16:48N 54°00' E 008°07'5 9.8
2017-Jul-17 16:16N 54°00' E 008°16'310.5
2017-Jul-17 16:00N 53°60' E 008°21'510.6
2017-Jul-17 15:30N 53°59' E 008°30'510.0
2017-Jul-17 15:00N 53°57' E 008°38'5 9.5
2017-Jul-17 14:30N 53°53' E 008°43'510.6
2017-Jul-17 14:00N 53°50' E 008°50'612.7
2017-Jul-17 13:30N 53°52' E 009°01'510.3
2017-Jul-17 13:00N 53°54' E 009°09'0 0.1
2017-Jul-17 12:30N 53°54' E 009°09'3 5.9
2017-Jul-17 12:00N 53°56' E 009°12'4 8.1
2017-Jul-17 11:30N 53°59' E 009°17'5 8.5
2017-Jul-17 10:59N 54°03' E 009°19'54 6.7
2017-Jul-17 02:53N 54°34' E 010°35'6 9.3
2017-Jul-17 02:15N 54°35' E 010°44'3 9.4
2017-Jul-17 01:57N 54°35' E 010°49'4 9.8
2017-Jul-17 01:30N 54°36' E 010°57'5 9.6
2017-Jul-17 01:00N 54°36' E 011°05'6 9.0
2017-Jul-17 00:19N 54°35' E 011°15'3 9.4
2017-Jul-16 23:58N 54°34' E 011°20'4 9.5
2017-Jul-16 23:30N 54°32' E 011°28'5 9.3
2017-Jul-16 23:00N 54°30' E 011°35'5 9.4
2017-Jul-16 22:30N 54°29' E 011°43'5 9.3
2017-Jul-16 22:00N 54°28' E 011°50'510.0
2017-Jul-16 21:30N 54°27' E 011°59'510.4
2017-Jul-16 21:00N 54°27' E 012°08'510.5
2017-Jul-16 20:30N 54°32' E 012°12'611.1
2017-Jul-16 20:00N 54°37' E 012°16'4911.0
2017-Jul-16 15:30N 54°58' E 013°34'510.9
2017-Jul-16 15:00N 55°00' E 013°42'510.9
2017-Jul-16 14:30N 55°02' E 013°51'510.9
2017-Jul-16 14:00N 55°04' E 013°60'510.6
2017-Jul-16 13:30N 55°07' E 014°08'611.1
2017-Jul-16 13:00N 55°11' E 014°15'611.2
2017-Jul-16 12:30N 55°15' E 014°21'611.5
2017-Jul-16 12:00N 55°20' E 014°28'611.5
2017-Jul-16 11:30N 55°24' E 014°34'611.2
2017-Jul-16 11:00N 55°27' E 014°42'611.2
2017-Jul-16 10:30N 55°30' E 014°50'611.2
2017-Jul-16 10:00N 55°33' E 014°59'511.0
2017-Jul-16 09:30N 55°36' E 015°07'611.2
2017-Jul-16 09:00N 55°39' E 015°16'611.1
2017-Jul-16 08:30N 55°42' E 015°24'611.4
2017-Jul-16 08:00N 55°45' E 015°33'611.9
2017-Jul-16 07:31N 55°48' E 015°41'612.0
2017-Jul-16 07:00N 55°51' E 015°50'612.5
2017-Jul-16 06:30N 55°55' E 015°60'612.8
2017-Jul-16 06:00N 55°58' E 016°10'612.8
2017-Jul-16 05:30N 56°01' E 016°20'612.9
2017-Jul-16 05:00N 56°04' E 016°30'612.8
2017-Jul-16 04:30N 56°08' E 016°39'612.3
2017-Jul-16 04:00N 56°13' E 016°46'612.8
2017-Jul-16 03:30N 56°19' E 016°50'612.8
2017-Jul-16 03:00N 56°25' E 016°55'612.8
2017-Jul-16 02:30N 56°31' E 016°59'714.6
2017-Jul-16 02:00N 56°37' E 017°04'612.2
2017-Jul-16 01:30N 56°43' E 017°08'912.0
2017-Jul-16 00:46N 56°51' E 017°14'415.9
2017-Jul-16 00:30N 56°55' E 017°17'612.7
2017-Jul-16 00:00N 57°01' E 017°21'612.5
2017-Jul-15 23:30N 57°07' E 017°26'712.6
2017-Jul-15 22:59N 57°13' E 017°30'4312.7
2017-Jul-15 19:36N 57°52' E 018°03'214.3
2017-Jul-15 19:28N 57°54' E 018°05'4 9.6
2017-Jul-15 19:01N 57°58' E 018°09'611.8
2017-Jul-15 18:30N 58°03' E 018°15'612.8
2017-Jul-15 18:00N 58°08' E 018°21'612.8
2017-Jul-15 17:30N 58°14' E 018°26'612.7
2017-Jul-15 17:00N 58°19' E 018°32'612.7
2017-Jul-15 16:30N 58°25' E 018°38'612.5
2017-Jul-15 16:00N 58°31' E 018°43'612.6
2017-Jul-15 15:30N 58°36' E 018°49'612.6
2017-Jul-15 15:00N 58°42' E 018°55'1312.5
2017-Jul-15 14:00N 58°53' E 019°06'612.6
2017-Jul-15 13:30N 58°58' E 019°11'612.8
2017-Jul-15 13:00N 59°04' E 019°17'612.9
2017-Jul-15 12:30N 59°10' E 019°23'612.9
2017-Jul-15 12:00N 59°15' E 019°29'612.9
2017-Jul-15 11:30N 59°21' E 019°35'612.9
2017-Jul-15 11:00N 59°27' E 019°42'612.4
2017-Jul-15 10:30N 59°33' E 019°44'612.4
2017-Jul-15 10:00N 59°39' E 019°43'612.7
2017-Jul-15 09:30N 59°44' E 019°36'713.0
2017-Jul-15 09:00N 59°50' E 019°28'713.1
2017-Jul-15 08:30N 59°55' E 019°21'612.9
2017-Jul-15 08:00N 60°01' E 019°14'612.9
2017-Jul-15 07:30N 60°06' E 019°07'612.7
2017-Jul-15 07:00N 60°12' E 019°01'612.8
2017-Jul-15 06:30N 60°18' E 019°00'612.7
2017-Jul-15 06:00N 60°24' E 018°59'612.8
2017-Jul-15 05:30N 60°31' E 018°58'612.7
2017-Jul-15 05:00N 60°37' E 018°58'612.8
2017-Jul-15 04:30N 60°43' E 018°59'612.7
2017-Jul-15 04:00N 60°50' E 018°59'612.6
2017-Jul-15 03:30N 60°56' E 018°59'612.6
2017-Jul-15 03:00N 61°02' E 018°59'612.7
2017-Jul-15 02:30N 61°09' E 018°58'4712.7
2017-Jul-14 22:48N 61°56' E 018°57'412.6
2017-Jul-14 22:30N 61°59' E 018°57'612.6
2017-Jul-14 22:00N 62°06' E 018°56'1312.8
2017-Jul-14 21:00N 62°19' E 018°56'1013.2
2017-Jul-14 20:13N 62°29' E 018°57'312.8
2017-Jul-14 20:00N 62°32' E 018°57'612.6
2017-Jul-14 19:30N 62°38' E 018°57'17 0.4
2017-Jul-13 01:58N 62°55' E 018°56'2311.2
2017-Jul-12 23:57N 62°32' E 018°56'811.5
2017-Jul-12 23:15N 62°24' E 018°57'1112.2
2017-Jul-12 22:23N 62°14' E 018°57'2411.4
2017-Jul-12 20:19N 61°50' E 018°59'311.2
2017-Jul-12 20:00N 61°47' E 018°60'2211.8
2017-Jul-12 18:10N 61°25' E 018°59'211.1
2017-Jul-12 18:00N 61°23' E 018°59'611.2
2017-Jul-12 17:31N 61°18' E 018°59'611.2
2017-Jul-12 17:00N 61°12' E 018°59'9 9.9
2017-Jul-12 16:03N 61°03' E 018°59'0 9.5
2017-Jul-12 16:00N 61°02' E 018°59'611.6
2017-Jul-12 15:30N 60°57' E 018°60'611.0
2017-Jul-12 15:00N 60°51' E 019°00'1211.5
2017-Jul-12 14:00N 60°40' E 019°01'713.4
2017-Jul-12 13:30N 60°33' E 019°01'611.9
2017-Jul-12 13:00N 60°27' E 019°01'611.7
2017-Jul-12 12:31N 60°21' E 019°01'611.6
2017-Jul-12 12:00N 60°15' E 019°03'612.1
2017-Jul-12 11:30N 60°10' E 019°08'814.5
2017-Jul-12 10:59N 60°03' E 019°16'510.5
2017-Jul-12 10:30N 59°59' E 019°21'612.3
2017-Jul-12 10:00N 59°54' E 019°28'611.5
2017-Jul-12 09:30N 59°49' E 019°32'612.8
2017-Jul-12 09:00N 59°43' E 019°39'612.7
2017-Jul-12 08:31N 59°37' E 019°44'713.6
2017-Jul-12 08:00N 59°31' E 019°43'612.5
2017-Jul-12 07:30N 59°25' E 019°39'612.7
2017-Jul-12 07:00N 59°19' E 019°33'612.4
2017-Jul-12 06:30N 59°13' E 019°28'612.9
2017-Jul-12 06:00N 59°08' E 019°23'912.9
2017-Jul-12 05:21N 58°60' E 019°15'412.2
2017-Jul-12 05:01N 58°56' E 019°12'612.5
2017-Jul-12 04:30N 58°51' E 019°06'612.7
2017-Jul-12 04:00N 58°45' E 019°01'15112.6
2017-Jul-11 16:02N 56°28' E 017°04'012.7
2017-Jul-11 16:01N 56°28' E 017°04'612.7
2017-Jul-11 15:31N 56°22' E 016°60'612.5
2017-Jul-11 15:01N 56°16' E 016°55'612.5
2017-Jul-11 14:31N 56°10' E 016°51'612.3
2017-Jul-11 14:01N 56°05' E 016°46'612.7
2017-Jul-11 13:31N 56°01' E 016°37'612.6
2017-Jul-11 13:01N 55°57' E 016°27'612.4
2017-Jul-11 12:31N 55°54' E 016°18'612.2
2017-Jul-11 12:01N 55°51' E 016°08'612.3
2017-Jul-11 11:31N 55°48' E 015°59'612.3
2017-Jul-11 11:01N 55°45' E 015°50'612.3
2017-Jul-11 10:31N 55°41' E 015°40'612.3
2017-Jul-11 10:01N 55°38' E 015°31'612.5
2017-Jul-11 09:31N 55°35' E 015°21'612.4
2017-Jul-11 09:01N 55°32' E 015°12'612.4
2017-Jul-11 08:30N 55°29' E 015°02'612.4
2017-Jul-11 08:00N 55°26' E 014°52'612.3
2017-Jul-11 07:30N 55°23' E 014°43'612.4
2017-Jul-11 07:00N 55°20' E 014°34'612.5
2017-Jul-11 06:30N 55°15' E 014°27'612.3
2017-Jul-11 06:00N 55°12' E 014°18'612.4
2017-Jul-11 05:31N 55°11' E 014°07'612.3
2017-Jul-11 05:00N 55°11' E 013°56'612.5
2017-Jul-11 04:29N 55°11' E 013°45'612.2
2017-Jul-11 03:59N 55°12' E 013°34'612.2
2017-Jul-11 03:29N 55°13' E 013°24'612.6
2017-Jul-11 02:59N 55°13' E 013°13'612.6
2017-Jul-11 02:30N 55°14' E 013°02'612.8
2017-Jul-11 02:01N 55°15' E 012°51'612.8
2017-Jul-11 01:30N 55°17' E 012°41'611.3
2017-Jul-11 01:01N 55°23' E 012°39'612.6
2017-Jul-11 00:31N 55°29' E 012°41'611.3
2017-Jul-11 00:01N 55°35' E 012°42'611.2
2017-Jul-10 23:31N 55°40' E 012°41'611.9
2017-Jul-10 23:01N 55°46' E 012°41'611.9
2017-Jul-10 22:31N 55°52' E 012°40'612.2
2017-Jul-10 22:01N 55°58' E 012°38'611.2
2017-Jul-10 21:31N 56°04' E 012°37'511.0
2017-Jul-10 21:01N 56°07' E 012°30'510.7
2017-Jul-10 20:31N 56°13' E 012°27'611.8
2017-Jul-10 20:00N 56°18' E 012°24'611.7
2017-Jul-10 19:30N 56°24' E 012°20'612.2
2017-Jul-10 19:00N 56°30' E 012°18'813.0
2017-Jul-10 18:23N 56°37' E 012°14'513.1
2017-Jul-10 18:00N 56°42' E 012°11'612.9
2017-Jul-10 17:30N 56°48' E 012°07'712.8
2017-Jul-10 16:59N 56°55' E 012°04'912.7
2017-Jul-10 16:17N 57°03' E 011°58'412.9
2017-Jul-10 15:56N 57°07' E 011°56'612.7
2017-Jul-10 15:30N 57°13' E 011°53'612.7
2017-Jul-10 14:59N 57°19' E 011°48'612.6
2017-Jul-10 14:29N 57°24' E 011°44'613.1
2017-Jul-10 14:01N 57°30' E 011°40'  
Track history (hours):
 
Tides and Currents Weather Stations Pressure Air Temp Water Temp Dewpoint Dewpoint Depression Visibility Wind Speed Wind Dir Waves Ship Positions

Lammy

Last reported at 2017-Jul-20 13:50 UTC. Time now 2017-Jul-20 16:28 UTC.
Position N 53°38' W 000°11'.

Length 95 m; draft 5.4 m.

Type: Cargo ship. MMSI: 245391000.

Date/timePositionNaut miles runAvg speedWind from/ knotsBaromVisibWave heightAir tempDewpointWater temp
2017-Jul-20 13:50N 53°38' W 000°11'0 0.0
2017-Jul-20 13:20N 53°38' W 000°11'0 0.0
2017-Jul-20 11:50N 53°38' W 000°11'0 0.0
2017-Jul-20 06:53N 53°38' W 000°11'0 0.0
2017-Jul-20 06:29N 53°38' W 000°11'0 0.0
2017-Jul-20 05:59N 53°38' W 000°11'0 0.0
2017-Jul-20 05:29N 53°38' W 000°11'0 0.0
2017-Jul-20 04:59N 53°38' W 000°11'0 0.0
2017-Jul-20 04:29N 53°38' W 000°11'0 0.0
2017-Jul-20 03:56N 53°38' W 000°11'0 0.0
2017-Jul-20 03:26N 53°38' W 000°11'0 0.0
2017-Jul-20 02:44N 53°38' W 000°11'0 0.0
2017-Jul-20 02:29N 53°38' W 000°11'0 0.0
2017-Jul-20 01:50N 53°38' W 000°11'0 0.0
2017-Jul-20 01:29N 53°38' W 000°11'0 0.0
2017-Jul-20 00:53N 53°38' W 000°11'0 0.0
2017-Jul-20 00:29N 53°38' W 000°11'0 0.0
2017-Jul-19 23:59N 53°38' W 000°11'0 0.0
2017-Jul-19 23:29N 53°38' W 000°11'0 0.0
2017-Jul-19 22:59N 53°38' W 000°11'0 0.0
2017-Jul-19 22:26N 53°38' W 000°11'0 0.2
2017-Jul-19 21:58N 53°38' W 000°11'0 0.3
2017-Jul-19 21:29N 53°38' W 000°11'0 0.6
2017-Jul-19 20:57N 53°38' W 000°11'0 0.8
2017-Jul-19 20:28N 53°38' W 000°11'3 5.4
2017-Jul-19 20:00N 53°41' W 000°13'4 8.5
2017-Jul-19 19:30N 53°44' W 000°16'1 1.0
2017-Jul-19 18:59N 53°45' W 000°16'0 0.0
2017-Jul-19 18:29N 53°45' W 000°16'0 0.0
2017-Jul-19 17:59N 53°45' W 000°16'0 0.0
2017-Jul-19 17:29N 53°45' W 000°16'0 0.0
2017-Jul-19 16:59N 53°45' W 000°16'0 0.0
2017-Jul-19 16:26N 53°45' W 000°16'0 0.0
2017-Jul-19 15:59N 53°45' W 000°16'0 0.0
2017-Jul-19 15:26N 53°45' W 000°16'0 0.0
2017-Jul-19 14:59N 53°45' W 000°16'0 0.0
2017-Jul-19 14:29N 53°45' W 000°16'0 0.0
2017-Jul-19 13:59N 53°45' W 000°16'0 0.0
2017-Jul-19 13:29N 53°45' W 000°16'0 0.0
2017-Jul-19 12:59N 53°45' W 000°16'0 0.0
2017-Jul-19 12:26N 53°45' W 000°16'0 0.0
2017-Jul-19 11:59N 53°45' W 000°16'0 0.0
2017-Jul-19 11:29N 53°45' W 000°16'0 0.0
2017-Jul-19 10:59N 53°45' W 000°16'0 0.0
2017-Jul-19 10:29N 53°45' W 000°16'0 0.0
2017-Jul-19 09:59N 53°45' W 000°16'0 0.0
2017-Jul-19 09:29N 53°45' W 000°16'0 0.0
2017-Jul-19 08:59N 53°45' W 000°16'0 0.0
2017-Jul-19 08:29N 53°45' W 000°16'0 0.0
2017-Jul-19 07:59N 53°45' W 000°16'0 0.0
2017-Jul-19 07:29N 53°45' W 000°16'0 0.0
2017-Jul-19 06:59N 53°45' W 000°16'0 0.0
2017-Jul-19 06:26N 53°45' W 000°16'0 0.0
2017-Jul-19 05:59N 53°45' W 000°16'0 0.0
2017-Jul-19 05:26N 53°45' W 000°16'0 0.0
2017-Jul-19 04:50N 53°45' W 000°16'0 0.0
2017-Jul-19 04:26N 53°45' W 000°16'0 0.0
2017-Jul-19 03:56N 53°45' W 000°16'0 0.0
2017-Jul-19 03:29N 53°45' W 000°16'0 0.0
2017-Jul-19 02:56N 53°45' W 000°16'0 0.0
2017-Jul-19 02:29N 53°45' W 000°16'0 0.0
2017-Jul-19 01:59N 53°45' W 000°16'0 0.0
2017-Jul-19 01:29N 53°45' W 000°16'0 0.0
2017-Jul-19 00:59N 53°45' W 000°16'0 0.0
2017-Jul-19 00:29N 53°45' W 000°16'0 0.0
2017-Jul-18 23:59N 53°45' W 000°16'0 0.0
2017-Jul-18 23:29N 53°45' W 000°16'0 0.0
2017-Jul-18 22:59N 53°45' W 000°16'0 0.0
2017-Jul-18 22:29N 53°45' W 000°16'0 0.0
2017-Jul-18 22:00N 53°45' W 000°16'0 0.9
2017-Jul-18 21:30N 53°44' W 000°16'0 0.2
2017-Jul-18 21:00N 53°44' W 000°17'2 4.3
2017-Jul-18 20:30N 53°43' W 000°14'511.1
2017-Jul-18 20:00N 53°38' W 000°10'711.3
2017-Jul-18 19:25N 53°35' E 000°01'1711.6
2017-Jul-18 17:58N 53°34' E 000°29'611.9
2017-Jul-18 17:30N 53°34' E 000°38'611.9
2017-Jul-18 17:00N 53°35' E 000°48'612.3
2017-Jul-18 16:30N 53°35' E 000°58'611.7
2017-Jul-18 16:00N 53°35' E 001°08'610.2
2017-Jul-18 15:23N 53°35' E 001°19'510.0
2017-Jul-18 14:53N 53°35' E 001°27'10 9.8
2017-Jul-18 13:52N 53°35' E 001°44'23 9.7
2017-Jul-18 11:27N 53°34' E 002°23'510.2
2017-Jul-18 10:57N 53°34' E 002°32'510.3
2017-Jul-18 10:30N 53°34' E 002°40'3910.9
2017-Jul-18 06:57N 53°30' E 003°44'711.4
2017-Jul-18 06:20N 53°30' E 003°56'411.4
2017-Jul-18 06:00N 53°30' E 004°03'611.4
2017-Jul-18 05:26N 53°30' E 004°14'611.5
2017-Jul-18 04:57N 53°30' E 004°23'13611.2
2017-Jul-17 16:48N 54°00' E 008°07'5 9.8
2017-Jul-17 16:16N 54°00' E 008°16'310.5
2017-Jul-17 16:00N 53°60' E 008°21'510.6
2017-Jul-17 15:30N 53°59' E 008°30'510.0
2017-Jul-17 15:00N 53°57' E 008°38'5 9.5
2017-Jul-17 14:30N 53°53' E 008°43'510.6
2017-Jul-17 14:00N 53°50' E 008°50'612.7
2017-Jul-17 13:30N 53°52' E 009°01'510.3
2017-Jul-17 13:00N 53°54' E 009°09'0 0.1
2017-Jul-17 12:30N 53°54' E 009°09'3 5.9
2017-Jul-17 12:00N 53°56' E 009°12'4 8.1
2017-Jul-17 11:30N 53°59' E 009°17'5 8.5
2017-Jul-17 10:59N 54°03' E 009°19'54 6.7
2017-Jul-17 02:53N 54°34' E 010°35'6 9.3
2017-Jul-17 02:15N 54°35' E 010°44'3 9.4
2017-Jul-17 01:57N 54°35' E 010°49'4 9.8
2017-Jul-17 01:30N 54°36' E 010°57'5 9.6
2017-Jul-17 01:00N 54°36' E 011°05'6 9.0
2017-Jul-17 00:19N 54°35' E 011°15'3 9.4
2017-Jul-16 23:58N 54°34' E 011°20'4 9.5
2017-Jul-16 23:30N 54°32' E 011°28'5 9.3
2017-Jul-16 23:00N 54°30' E 011°35'5 9.4
2017-Jul-16 22:30N 54°29' E 011°43'5 9.3
2017-Jul-16 22:00N 54°28' E 011°50'510.0
2017-Jul-16 21:30N 54°27' E 011°59'510.4
2017-Jul-16 21:00N 54°27' E 012°08'510.5
2017-Jul-16 20:30N 54°32' E 012°12'611.1
2017-Jul-16 20:00N 54°37' E 012°16'4911.0
2017-Jul-16 15:30N 54°58' E 013°34'510.9
2017-Jul-16 15:00N 55°00' E 013°42'510.9
2017-Jul-16 14:30N 55°02' E 013°51'510.9
2017-Jul-16 14:00N 55°04' E 013°60'510.6
2017-Jul-16 13:30N 55°07' E 014°08'611.1
2017-Jul-16 13:00N 55°11' E 014°15'611.2
2017-Jul-16 12:30N 55°15' E 014°21'611.5
2017-Jul-16 12:00N 55°20' E 014°28'611.5
2017-Jul-16 11:30N 55°24' E 014°34'611.2
2017-Jul-16 11:00N 55°27' E 014°42'611.2
2017-Jul-16 10:30N 55°30' E 014°50'611.2
2017-Jul-16 10:00N 55°33' E 014°59'511.0
2017-Jul-16 09:30N 55°36' E 015°07'611.2
2017-Jul-16 09:00N 55°39' E 015°16'611.1
2017-Jul-16 08:30N 55°42' E 015°24'611.4
2017-Jul-16 08:00N 55°45' E 015°33'611.9
2017-Jul-16 07:31N 55°48' E 015°41'612.0
2017-Jul-16 07:00N 55°51' E 015°50'612.5
2017-Jul-16 06:30N 55°55' E 015°60'612.8
2017-Jul-16 06:00N 55°58' E 016°10'612.8
2017-Jul-16 05:30N 56°01' E 016°20'612.9
2017-Jul-16 05:00N 56°04' E 016°30'612.8
2017-Jul-16 04:30N 56°08' E 016°39'612.3
2017-Jul-16 04:00N 56°13' E 016°46'612.8
2017-Jul-16 03:30N 56°19' E 016°50'612.8
2017-Jul-16 03:00N 56°25' E 016°55'612.8
2017-Jul-16 02:30N 56°31' E 016°59'714.6
2017-Jul-16 02:00N 56°37' E 017°04'612.2
2017-Jul-16 01:30N 56°43' E 017°08'912.0
2017-Jul-16 00:46N 56°51' E 017°14'415.9
2017-Jul-16 00:30N 56°55' E 017°17'612.7
2017-Jul-16 00:00N 57°01' E 017°21'612.5
2017-Jul-15 23:30N 57°07' E 017°26'712.6
2017-Jul-15 22:59N 57°13' E 017°30'4312.7
2017-Jul-15 19:36N 57°52' E 018°03'214.3
2017-Jul-15 19:28N 57°54' E 018°05'4 9.6
2017-Jul-15 19:01N 57°58' E 018°09'611.8
2017-Jul-15 18:30N 58°03' E 018°15'612.8
2017-Jul-15 18:00N 58°08' E 018°21'612.8
2017-Jul-15 17:30N 58°14' E 018°26'612.7
2017-Jul-15 17:00N 58°19' E 018°32'612.7
2017-Jul-15 16:30N 58°25' E 018°38'612.5
2017-Jul-15 16:00N 58°31' E 018°43'612.6
2017-Jul-15 15:30N 58°36' E 018°49'612.6
2017-Jul-15 15:00N 58°42' E 018°55'1312.5
2017-Jul-15 14:00N 58°53' E 019°06'612.6
2017-Jul-15 13:30N 58°58' E 019°11'612.8
2017-Jul-15 13:00N 59°04' E 019°17'612.9
2017-Jul-15 12:30N 59°10' E 019°23'612.9
2017-Jul-15 12:00N 59°15' E 019°29'612.9
2017-Jul-15 11:30N 59°21' E 019°35'612.9
2017-Jul-15 11:00N 59°27' E 019°42'612.4
2017-Jul-15 10:30N 59°33' E 019°44'612.4
2017-Jul-15 10:00N 59°39' E 019°43'612.7
2017-Jul-15 09:30N 59°44' E 019°36'713.0
2017-Jul-15 09:00N 59°50' E 019°28'713.1
2017-Jul-15 08:30N 59°55' E 019°21'612.9
2017-Jul-15 08:00N 60°01' E 019°14'612.9
2017-Jul-15 07:30N 60°06' E 019°07'612.7
2017-Jul-15 07:00N 60°12' E 019°01'612.8
2017-Jul-15 06:30N 60°18' E 019°00'612.7
2017-Jul-15 06:00N 60°24' E 018°59'612.8
2017-Jul-15 05:30N 60°31' E 018°58'612.7
2017-Jul-15 05:00N 60°37' E 018°58'612.8
2017-Jul-15 04:30N 60°43' E 018°59'612.7
2017-Jul-15 04:00N 60°50' E 018°59'612.6
2017-Jul-15 03:30N 60°56' E 018°59'612.6
2017-Jul-15 03:00N 61°02' E 018°59'612.7
2017-Jul-15 02:30N 61°09' E 018°58'4712.7
2017-Jul-14 22:48N 61°56' E 018°57'412.6
2017-Jul-14 22:30N 61°59' E 018°57'612.6
2017-Jul-14 22:00N 62°06' E 018°56'1312.8
2017-Jul-14 21:00N 62°19' E 018°56'1013.2
2017-Jul-14 20:13N 62°29' E 018°57'312.8
2017-Jul-14 20:00N 62°32' E 018°57'612.6
2017-Jul-14 19:30N 62°38' E 018°57'17 0.4
2017-Jul-13 01:58N 62°55' E 018°56'2311.2
2017-Jul-12 23:57N 62°32' E 018°56'811.5
2017-Jul-12 23:15N 62°24' E 018°57'1112.2
2017-Jul-12 22:23N 62°14' E 018°57'2411.4
2017-Jul-12 20:19N 61°50' E 018°59'311.2
2017-Jul-12 20:00N 61°47' E 018°60'2211.8
2017-Jul-12 18:10N 61°25' E 018°59'211.1
2017-Jul-12 18:00N 61°23' E 018°59'611.2
2017-Jul-12 17:31N 61°18' E 018°59'611.2
2017-Jul-12 17:00N 61°12' E 018°59'9 9.9
2017-Jul-12 16:03N 61°03' E 018°59'0 9.5
2017-Jul-12 16:00N 61°02' E 018°59'611.6
2017-Jul-12 15:30N 60°57' E 018°60'611.0
2017-Jul-12 15:00N 60°51' E 019°00'1211.5
2017-Jul-12 14:00N 60°40' E 019°01'713.4
2017-Jul-12 13:30N 60°33' E 019°01'611.9
2017-Jul-12 13:00N 60°27' E 019°01'611.7
2017-Jul-12 12:31N 60°21' E 019°01'611.6
2017-Jul-12 12:00N 60°15' E 019°03'612.1
2017-Jul-12 11:30N 60°10' E 019°08'814.5
2017-Jul-12 10:59N 60°03' E 019°16'510.5
2017-Jul-12 10:30N 59°59' E 019°21'612.3
2017-Jul-12 10:00N 59°54' E 019°28'611.5
2017-Jul-12 09:30N 59°49' E 019°32'612.8
2017-Jul-12 09:00N 59°43' E 019°39'612.7
2017-Jul-12 08:31N 59°37' E 019°44'713.6
2017-Jul-12 08:00N 59°31' E 019°43'612.5
2017-Jul-12 07:30N 59°25' E 019°39'612.7
2017-Jul-12 07:00N 59°19' E 019°33'612.4
2017-Jul-12 06:30N 59°13' E 019°28'612.9
2017-Jul-12 06:00N 59°08' E 019°23'912.9
2017-Jul-12 05:21N 58°60' E 019°15'412.2
2017-Jul-12 05:01N 58°56' E 019°12'612.5
2017-Jul-12 04:30N 58°51' E 019°06'612.7
2017-Jul-12 04:00N 58°45' E 019°01'15112.6
2017-Jul-11 16:02N 56°28' E 017°04'012.7
2017-Jul-11 16:01N 56°28' E 017°04'612.7
2017-Jul-11 15:31N 56°22' E 016°60'612.5
2017-Jul-11 15:01N 56°16' E 016°55'612.5
2017-Jul-11 14:31N 56°10' E 016°51'612.3
2017-Jul-11 14:01N 56°05' E 016°46'612.7
2017-Jul-11 13:31N 56°01' E 016°37'612.6
2017-Jul-11 13:01N 55°57' E 016°27'612.4
2017-Jul-11 12:31N 55°54' E 016°18'612.2
2017-Jul-11 12:01N 55°51' E 016°08'612.3
2017-Jul-11 11:31N 55°48' E 015°59'612.3
2017-Jul-11 11:01N 55°45' E 015°50'612.3
2017-Jul-11 10:31N 55°41' E 015°40'612.3
2017-Jul-11 10:01N 55°38' E 015°31'612.5
2017-Jul-11 09:31N 55°35' E 015°21'612.4
2017-Jul-11 09:01N 55°32' E 015°12'612.4
2017-Jul-11 08:30N 55°29' E 015°02'612.4
2017-Jul-11 08:00N 55°26' E 014°52'612.3
2017-Jul-11 07:30N 55°23' E 014°43'612.4
2017-Jul-11 07:00N 55°20' E 014°34'612.5
2017-Jul-11 06:30N 55°15' E 014°27'612.3
2017-Jul-11 06:00N 55°12' E 014°18'612.4
2017-Jul-11 05:31N 55°11' E 014°07'612.3
2017-Jul-11 05:00N 55°11' E 013°56'612.5
2017-Jul-11 04:29N 55°11' E 013°45'612.2
2017-Jul-11 03:59N 55°12' E 013°34'612.2
2017-Jul-11 03:29N 55°13' E 013°24'612.6
2017-Jul-11 02:59N 55°13' E 013°13'612.6
2017-Jul-11 02:30N 55°14' E 013°02'612.8
2017-Jul-11 02:01N 55°15' E 012°51'612.8
2017-Jul-11 01:30N 55°17' E 012°41'611.3
2017-Jul-11 01:01N 55°23' E 012°39'612.6
2017-Jul-11 00:31N 55°29' E 012°41'611.3
2017-Jul-11 00:01N 55°35' E 012°42'611.2
2017-Jul-10 23:31N 55°40' E 012°41'611.9
2017-Jul-10 23:01N 55°46' E 012°41'611.9
2017-Jul-10 22:31N 55°52' E 012°40'612.2
2017-Jul-10 22:01N 55°58' E 012°38'611.2
2017-Jul-10 21:31N 56°04' E 012°37'511.0
2017-Jul-10 21:01N 56°07' E 012°30'510.7
2017-Jul-10 20:31N 56°13' E 012°27'611.8
2017-Jul-10 20:00N 56°18' E 012°24'611.7
2017-Jul-10 19:30N 56°24' E 012°20'612.2
2017-Jul-10 19:00N 56°30' E 012°18'813.0
2017-Jul-10 18:23N 56°37' E 012°14'513.1
2017-Jul-10 18:00N 56°42' E 012°11'612.9
2017-Jul-10 17:30N 56°48' E 012°07'712.8
2017-Jul-10 16:59N 56°55' E 012°04'912.7
2017-Jul-10 16:17N 57°03' E 011°58'412.9
2017-Jul-10 15:56N 57°07' E 011°56'612.7
2017-Jul-10 15:30N 57°13' E 011°53'612.7
2017-Jul-10 14:59N 57°19' E 011°48'612.6
2017-Jul-10 14:29N 57°24' E 011°44'613.1
2017-Jul-10 14:01N 57°30' E 011°40'  

Dump ship's entire track history